Time;durP1;ratioP1;P1;durP2;ratioP2;P2;SDS_P1;SDS_P2;PMS_P1;PMS_P2;Temp;Humidity;BMP_temperature;BMP_pressure;BME280_temperature;BME280_humidity;BME280_pressure;Samples;Min_cycle;Max_cycle;Signal;HPM_P1;HPM_P2
2021/03/17 00:01:18;;;;;;;1.03;1.00;;;23.00;27.20;;;;;;5032035;28;20233;-57
2021/03/17 00:03:44;;;;;;;1.00;0.90;;;23.00;27.20;;;;;;5030348;28;20676;-51
2021/03/17 00:06:09;;;;;;;1.40;1.03;;;23.00;27.20;;;;;;5022686;28;20316;-57
2021/03/17 00:08:35;;;;;;;1.90;1.27;;;23.00;27.20;;;;;;5033118;28;20199;-53
2021/03/17 00:11:01;;;;;;;1.17;1.07;;;23.00;27.20;;;;;;5032008;28;20639;-55
2021/03/17 00:13:27;;;;;;;1.43;1.00;;;23.00;27.20;;;;;;5030631;28;20229;-54
2021/03/17 00:15:53;;;;;;;1.50;1.10;;;23.00;27.30;;;;;;5031260;28;20297;-54
2021/03/17 00:18:19;;;;;;;1.33;0.93;;;23.00;27.20;;;;;;5032509;28;20218;-57
2021/03/17 00:20:45;;;;;;;1.50;1.40;;;23.00;27.20;;;;;;5031383;28;20201;-56
2021/03/17 00:23:11;;;;;;;1.17;1.00;;;23.00;27.30;;;;;;5037517;28;20563;-51
2021/03/17 00:25:37;;;;;;;1.20;1.10;;;23.00;27.30;;;;;;5032598;28;20291;-54
2021/03/17 00:28:03;;;;;;;1.20;1.10;;;23.00;27.30;;;;;;5032445;28;20206;-52
2021/03/17 00:30:29;;;;;;;1.10;1.00;;;23.00;27.30;;;;;;5031479;28;20548;-55
2021/03/17 00:32:56;;;;;;;1.70;1.03;;;23.00;27.30;;;;;;5031437;28;20229;-56
2021/03/17 00:35:22;;;;;;;1.00;1.00;;;23.00;27.30;;;;;;5028817;28;20251;-55
2021/03/17 00:37:48;;;;;;;1.20;1.10;;;23.00;27.30;;;;;;5031904;28;20667;-58
2021/03/17 00:40:14;;;;;;;1.07;1.03;;;23.00;27.30;;;;;;5031240;28;20209;-54
2021/03/17 00:42:40;;;;;;;1.03;1.00;;;23.00;27.30;;;;;;5032192;28;20218;-58
2021/03/17 00:45:06;;;;;;;1.30;1.10;;;23.00;27.40;;;;;;5039974;28;20597;-58
2021/03/17 00:47:32;;;;;;;0.97;0.97;;;23.00;27.40;;;;;;5031144;28;20210;-59
2021/03/17 00:49:58;;;;;;;2.07;1.00;;;23.00;27.40;;;;;;5032036;28;20210;-56
2021/03/17 00:52:24;;;;;;;1.27;0.93;;;23.00;27.40;;;;;;5030055;28;20600;-56
2021/03/17 00:54:50;;;;;;;1.10;1.00;;;23.00;27.40;;;;;;5045518;28;20215;-59
2021/03/17 00:57:15;;;;;;;1.40;0.97;;;23.00;27.40;;;;;;5037471;28;20202;-55
2021/03/17 00:59:41;;;;;;;1.37;1.03;;;23.00;27.50;;;;;;5031422;28;20564;-55
2021/03/17 01:02:07;;;;;;;1.10;1.00;;;23.00;27.50;;;;;;5030885;28;20264;-55
2021/03/17 01:04:33;;;;;;;1.13;1.00;;;23.00;27.40;;;;;;5040697;28;20225;-57
2021/03/17 01:06:59;;;;;;;1.10;1.00;;;23.00;27.40;;;;;;5041785;28;20202;-59
2021/03/17 01:09:25;;;;;;;1.27;1.17;;;23.00;27.40;;;;;;5031402;28;20204;-58
2021/03/17 01:11:51;;;;;;;1.43;1.13;;;23.00;27.40;;;;;;5030544;28;20584;-59
2021/03/17 01:14:17;;;;;;;1.50;1.40;;;23.00;27.40;;;;;;5030921;28;20213;-60
2021/03/17 01:16:43;;;;;;;1.20;1.10;;;23.00;27.40;;;;;;5031199;28;20206;-52
2021/03/17 01:19:09;;;;;;;1.20;1.10;;;23.00;27.40;;;;;;5031301;28;20615;-57
2021/03/17 01:21:35;;;;;;;1.23;0.90;;;23.00;27.40;;;;;;5030978;28;20222;-58
2021/03/17 01:24:01;;;;;;;0.97;0.90;;;23.00;27.40;;;;;;5040739;28;20806;-57
2021/03/17 01:26:27;;;;;;;1.53;1.00;;;23.00;27.40;;;;;;5029253;28;20230;-57
2021/03/17 01:28:53;;;;;;;1.10;1.00;;;23.00;27.40;;;;;;5031213;28;20206;-54
2021/03/17 01:31:19;;;;;;;0.93;0.93;;;23.00;27.40;;;;;;5017487;28;20813;-55
2021/03/17 01:33:45;;;;;;;1.33;0.83;;;23.00;27.40;;;;;;5029651;28;20205;-55
2021/03/17 01:36:11;;;;;;;1.57;0.90;;;23.00;27.50;;;;;;5031746;28;20213;-54
2021/03/17 01:38:37;;;;;;;0.90;0.90;;;23.00;27.50;;;;;;5030893;28;20579;-53
2021/03/17 01:41:03;;;;;;;1.70;1.10;;;23.00;27.50;;;;;;5030810;28;20238;-58
2021/03/17 01:43:29;;;;;;;1.43;1.33;;;23.00;27.50;;;;;;5028509;28;20201;-57
2021/03/17 01:45:55;;;;;;;1.60;0.93;;;23.00;27.50;;;;;;5034400;28;20230;-56
2021/03/17 01:48:21;;;;;;;0.90;0.90;;;23.00;27.50;;;;;;5030974;28;20206;-55
2021/03/17 01:50:47;;;;;;;0.90;0.90;;;23.00;27.50;;;;;;5031315;28;20292;-56
2021/03/17 01:53:13;;;;;;;1.10;1.00;;;23.00;27.60;;;;;;5035206;28;20210;-55
2021/03/17 01:55:39;;;;;;;0.90;0.90;;;23.00;27.60;;;;;;5036214;28;20927;-57
2021/03/17 01:58:04;;;;;;;1.77;1.10;;;23.00;27.60;;;;;;5035027;28;20206;-55
2021/03/17 02:00:30;;;;;;;1.03;1.00;;;23.00;27.60;;;;;;5034639;28;20201;-52
2021/03/17 02:02:56;;;;;;;1.77;1.00;;;23.00;27.70;;;;;;5035123;28;20202;-59
2021/03/17 02:05:22;;;;;;;1.63;1.10;;;23.00;27.60;;;;;;5034185;28;20229;-56
2021/03/17 02:07:48;;;;;;;0.90;0.90;;;22.90;27.60;;;;;;5034152;28;20209;-57
2021/03/17 02:10:14;;;;;;;1.27;1.17;;;22.90;27.60;;;;;;5032787;28;20568;-53
2021/03/17 02:12:40;;;;;;;1.20;1.10;;;22.90;27.60;;;;;;5034556;28;20210;-51
2021/03/17 02:15:06;;;;;;;0.90;0.90;;;23.00;27.70;;;;;;5038326;28;20205;-51
2021/03/17 02:17:32;;;;;;;1.23;0.80;;;22.90;27.60;;;;;;5033587;28;20562;-54
2021/03/17 02:19:58;;;;;;;1.07;0.90;;;22.90;27.60;;;;;;5035220;28;20200;-53
2021/03/17 02:22:24;;;;;;;1.10;1.00;;;22.90;27.60;;;;;;5034155;28;20697;-55
2021/03/17 02:24:50;;;;;;;1.00;1.00;;;23.00;27.70;;;;;;5040877;28;20225;-54
2021/03/17 02:27:16;;;;;;;0.80;0.80;;;23.00;27.60;;;;;;5034878;28;20209;-57
2021/03/17 02:29:43;;;;;;;1.10;0.90;;;22.90;27.50;;;;;;5037820;28;20260;-54
2021/03/17 02:32:09;;;;;;;1.00;1.00;;;23.00;27.60;;;;;;5033178;28;20221;-53
2021/03/17 02:34:35;;;;;;;0.93;0.90;;;23.00;27.60;;;;;;5042675;28;20201;-57
2021/03/17 02:37:01;;;;;;;1.07;0.90;;;23.00;27.60;;;;;;5022547;28;20207;-50
2021/03/17 02:39:27;;;;;;;0.83;0.83;;;22.90;27.60;;;;;;5023790;28;20637;-52
2021/03/17 02:41:53;;;;;;;0.80;0.80;;;22.90;27.60;;;;;;5034071;28;20226;-54
2021/03/17 02:44:19;;;;;;;1.47;1.00;;;22.90;27.60;;;;;;5033481;28;20203;-52
2021/03/17 02:46:45;;;;;;;1.23;0.93;;;23.00;27.70;;;;;;5033922;28;20573;-52
2021/03/17 02:49:11;;;;;;;1.27;1.17;;;23.00;27.60;;;;;;5034420;28;20201;-50
2021/03/17 02:51:37;;;;;;;1.20;1.10;;;22.90;27.60;;;;;;5033618;28;20704;-56
2021/03/17 02:54:03;;;;;;;1.20;1.00;;;23.00;28.00;;;;;;5034198;28;20194;-55
2021/03/17 02:56:29;;;;;;;1.13;1.00;;;23.00;28.00;;;;;;5032359;28;20209;-60
2021/03/17 02:58:55;;;;;;;3.10;1.03;;;23.00;27.90;;;;;;5033689;28;20205;-57
2021/03/17 03:01:21;;;;;;;1.93;1.13;;;22.90;27.90;;;;;;5033176;28;20265;-56
2021/03/17 03:03:47;;;;;;;1.33;1.23;;;22.90;28.00;;;;;;5042236;28;20666;-56
2021/03/17 03:06:13;;;;;;;1.27;1.17;;;22.90;27.90;;;;;;5032624;28;20234;-53
2021/03/17 03:08:39;;;;;;;0.90;0.90;;;22.90;27.90;;;;;;5034432;28;20205;-53
2021/03/17 03:11:05;;;;;;;0.80;0.80;;;22.90;27.90;;;;;;5033361;28;20707;-54
2021/03/17 03:13:31;;;;;;;0.93;0.70;;;22.90;28.00;;;;;;5032729;28;20213;-56
2021/03/17 03:15:57;;;;;;;2.17;1.00;;;22.90;27.80;;;;;;5030848;28;20213;-56
2021/03/17 03:18:23;;;;;;;1.10;1.00;;;22.90;27.80;;;;;;5032808;28;20221;-54
2021/03/17 03:20:49;;;;;;;0.80;0.80;;;22.90;27.70;;;;;;5032203;28;20226;-57
2021/03/17 03:23:15;;;;;;;0.80;0.80;;;23.00;27.70;;;;;;5039714;28;20208;-52
2021/03/17 03:25:41;;;;;;;1.10;1.00;;;23.00;27.70;;;;;;5037335;28;20222;-52
2021/03/17 03:28:13;;;;;;;2.33;1.00;;;23.00;28.30;;;;;;5033799;28;20205;-56
2021/03/17 03:30:39;;;;;;;0.97;0.87;;;23.00;27.80;;;;;;5028661;28;20229;-54
2021/03/17 03:33:05;;;;;;;2.67;1.00;;;23.00;27.80;;;;;;5028490;28;20611;-52
2021/03/17 03:35:31;;;;;;;1.20;1.00;;;23.00;27.70;;;;;;5033125;28;20213;-55
2021/03/17 03:37:57;;;;;;;1.77;1.07;;;23.00;27.70;;;;;;5033614;28;20252;-58
2021/03/17 03:40:23;;;;;;;0.93;0.93;;;23.00;27.70;;;;;;5032644;28;20229;-56
2021/03/17 03:42:48;;;;;;;2.03;1.00;;;23.00;27.80;;;;;;5032786;28;20212;-55
2021/03/17 03:45:14;;;;;;;1.03;1.00;;;23.00;27.90;;;;;;5042179;28;20264;-54
2021/03/17 03:47:40;;;;;;;0.93;0.93;;;23.00;27.80;;;;;;5033167;28;20201;-56
2021/03/17 03:50:06;;;;;;;0.80;0.80;;;23.00;27.80;;;;;;5032925;28;20730;-57
2021/03/17 03:52:32;;;;;;;1.13;1.03;;;23.00;27.80;;;;;;5031744;28;20217;-53
2021/03/17 03:54:58;;;;;;;2.23;1.27;;;23.00;27.70;;;;;;5031967;28;20213;-53
2021/03/17 03:57:24;;;;;;;0.80;0.80;;;23.00;27.80;;;;;;5033229;28;20206;-56
2021/03/17 03:59:50;;;;;;;0.90;0.90;;;22.90;27.80;;;;;;5033035;28;20213;-54
2021/03/17 04:02:16;;;;;;;2.47;1.30;;;22.90;27.90;;;;;;5047940;28;20204;-53
2021/03/17 04:04:42;;;;;;;1.27;1.10;;;22.90;27.90;;;;;;5033288;28;20230;-54
2021/03/17 04:07:08;;;;;;;0.97;0.80;;;22.90;27.90;;;;;;5032830;28;20221;-56
2021/03/17 04:09:34;;;;;;;0.77;0.77;;;22.90;28.00;;;;;;5037613;28;20759;-57
2021/03/17 04:12:00;;;;;;;1.27;0.90;;;22.90;27.90;;;;;;5032436;28;20225;-57
2021/03/17 04:14:26;;;;;;;1.20;0.90;;;22.90;27.90;;;;;;5031058;28;20201;-55
2021/03/17 04:16:52;;;;;;;1.20;1.10;;;22.90;27.90;;;;;;5033043;28;20213;-55
2021/03/17 04:19:18;;;;;;;0.80;0.80;;;22.90;27.80;;;;;;5032654;28;20204;-54
2021/03/17 04:21:44;;;;;;;0.90;0.90;;;22.90;27.70;;;;;;5039200;28;20225;-57
2021/03/17 04:24:10;;;;;;;1.00;1.00;;;22.90;27.80;;;;;;5033011;28;20202;-54
2021/03/17 04:26:36;;;;;;;1.60;0.90;;;22.90;27.80;;;;;;5032322;28;20240;-55
2021/03/17 04:29:02;;;;;;;0.73;0.73;;;22.90;27.80;;;;;;5032719;28;20670;-58
2021/03/17 04:31:28;;;;;;;1.23;1.00;;;22.90;27.90;;;;;;5041858;28;20241;-57
2021/03/17 04:33:54;;;;;;;1.05;0.90;;;22.90;27.80;;;;;;5019766;28;20249;-52
2021/03/17 04:36:20;;;;;;;0.90;0.87;;;23.00;28.00;;;;;;5031276;28;20225;-53
2021/03/17 04:38:46;;;;;;;1.53;1.00;;;23.00;28.00;;;;;;5031698;28;20207;-55
2021/03/17 04:41:12;;;;;;;0.93;0.87;;;23.00;28.20;;;;;;5027374;28;20764;-55
2021/03/17 04:43:37;;;;;;;1.50;1.17;;;22.90;28.00;;;;;;5032145;28;20212;-56
2021/03/17 04:46:03;;;;;;;1.50;1.10;;;22.90;27.90;;;;;;5031732;28;20229;-53
2021/03/17 04:48:29;;;;;;;1.13;1.03;;;22.90;28.00;;;;;;5032511;28;20546;-57
2021/03/17 04:50:55;;;;;;;1.10;1.00;;;23.00;28.00;;;;;;5036335;28;20229;-57
2021/03/17 04:53:21;;;;;;;1.10;1.00;;;23.00;28.00;;;;;;5031923;28;20218;-54
2021/03/17 04:55:47;;;;;;;0.90;0.90;;;23.00;28.00;;;;;;5031087;28;20241;-55
2021/03/17 04:58:13;;;;;;;1.57;1.20;;;22.90;28.00;;;;;;5029779;28;20202;-59
2021/03/17 05:00:39;;;;;;;1.23;0.93;;;22.90;28.00;;;;;;5032316;28;20226;-54
2021/03/17 05:03:05;;;;;;;1.70;1.00;;;22.90;27.90;;;;;;5033971;28;20212;-54
2021/03/17 05:05:31;;;;;;;1.13;1.13;;;23.00;27.90;;;;;;5031655;28;20229;-54
2021/03/17 05:07:57;;;;;;;1.07;0.90;;;22.90;27.90;;;;;;5032459;28;20205;-58
2021/03/17 05:10:23;;;;;;;1.70;0.83;;;22.90;27.80;;;;;;5030102;28;20248;-59
2021/03/17 05:12:49;;;;;;;1.00;0.90;;;22.90;27.90;;;;;;5029312;28;20203;-58
2021/03/17 05:15:15;;;;;;;1.07;0.87;;;22.90;27.90;;;;;;5030338;28;20210;-58
2021/03/17 05:17:41;;;;;;;1.47;0.90;;;22.90;27.90;;;;;;5031918;28;20216;-58
2021/03/17 05:20:07;;;;;;;1.90;0.90;;;22.90;27.80;;;;;;5031176;28;20232;-57
2021/03/17 05:22:33;;;;;;;1.67;0.90;;;22.90;27.90;;;;;;5030913;28;20209;-59
2021/03/17 05:25:05;;;;;;;1.87;0.80;;;22.90;27.90;;;;;;5031209;28;20272;-56
2021/03/17 05:27:31;;;;;;;1.10;1.00;;;23.00;28.00;;;;;;5030981;28;20248;-58
2021/03/17 05:29:57;;;;;;;1.10;1.00;;;23.00;28.00;;;;;;5029751;28;20229;-57
2021/03/17 05:32:23;;;;;;;1.07;0.90;;;23.00;28.00;;;;;;5027140;28;20211;-56
2021/03/17 05:34:49;;;;;;;1.33;1.00;;;23.00;28.10;;;;;;5029693;28;20568;-59
2021/03/17 05:37:15;;;;;;;0.97;0.87;;;23.00;28.00;;;;;;5029592;28;20208;-59
2021/03/17 05:39:41;;;;;;;1.80;1.10;;;23.00;27.90;;;;;;5031023;28;20234;-56
2021/03/17 05:42:07;;;;;;;1.47;1.00;;;23.00;28.00;;;;;;5030922;28;20411;-58
2021/03/17 05:44:33;;;;;;;1.23;1.00;;;23.00;28.00;;;;;;5030195;28;20239;-57
2021/03/17 05:46:59;;;;;;;1.17;0.90;;;23.00;28.00;;;;;;5030580;28;20568;-57
2021/03/17 05:49:25;;;;;;;2.30;1.00;;;23.00;27.90;;;;;;5030798;28;20252;-58
2021/03/17 05:51:51;;;;;;;2.27;1.07;;;23.00;27.80;;;;;;5031586;28;20220;-58
2021/03/17 05:54:17;;;;;;;0.88;0.80;;;23.00;27.90;;;;;;5034474;28;20206;-57
2021/03/17 05:56:42;;;;;;;1.13;0.90;;;23.00;27.90;;;;;;5030693;28;20205;-55
2021/03/17 05:59:08;;;;;;;1.53;1.00;;;23.00;27.80;;;;;;5030040;28;20206;-57
2021/03/17 06:01:34;;;;;;;1.73;1.00;;;23.00;27.80;;;;;;5030109;28;20222;-56
2021/03/17 06:04:00;;;;;;;0.90;0.90;;;23.00;27.90;;;;;;5030765;28;20213;-54
2021/03/17 06:06:26;;;;;;;2.93;1.10;;;23.00;27.90;;;;;;5026625;28;20722;-57
2021/03/17 06:08:52;;;;;;;1.20;0.93;;;23.00;27.90;;;;;;5027226;28;20212;-59
2021/03/17 06:11:18;;;;;;;1.97;0.90;;;23.00;27.90;;;;;;5030340;28;20218;-59
2021/03/17 06:13:44;;;;;;;1.50;0.93;;;23.00;27.90;;;;;;5036470;28;20572;-58
2021/03/17 06:16:10;;;;;;;1.00;0.90;;;23.00;27.90;;;;;;5037709;28;20214;-58
2021/03/17 06:18:36;;;;;;;1.57;0.90;;;22.90;27.80;;;;;;5037696;28;20256;-57
2021/03/17 06:21:02;;;;;;;1.07;0.80;;;23.00;28.10;;;;;;5030435;28;20583;-59
2021/03/17 06:23:28;;;;;;;1.53;0.90;;;23.00;27.90;;;;;;5030689;28;20207;-56
2021/03/17 06:25:54;;;;;;;2.00;1.00;;;23.00;27.90;;;;;;5041293;28;20234;-59
2021/03/17 06:28:20;;;;;;;0.90;0.90;;;23.00;27.90;;;;;;5030755;28;20199;-59
2021/03/17 06:30:46;;;;;;;1.57;1.10;;;23.00;28.00;;;;;;5030033;28;20222;-58
2021/03/17 06:33:12;;;;;;;1.70;1.07;;;23.00;27.90;;;;;;5030738;28;20209;-57
2021/03/17 06:35:38;;;;;;;1.53;0.87;;;23.00;27.90;;;;;;5029822;28;20229;-57
2021/03/17 06:38:04;;;;;;;1.73;0.90;;;23.00;27.80;;;;;;5031616;28;20234;-53
2021/03/17 06:40:30;;;;;;;1.57;1.03;;;23.00;27.90;;;;;;5033440;28;20241;-55
2021/03/17 06:42:56;;;;;;;1.00;0.90;;;23.00;27.80;;;;;;5033461;28;20195;-58
2021/03/17 06:45:22;;;;;;;2.10;1.03;;;23.00;27.80;;;;;;5033381;28;20224;-57
2021/03/17 06:47:48;;;;;;;1.40;1.17;;;23.00;27.80;;;;;;5032484;28;20206;-56
2021/03/17 06:50:15;;;;;;;1.03;0.87;;;23.00;27.90;;;;;;5033802;28;20229;-59
2021/03/17 06:52:41;;;;;;;1.17;0.90;;;23.00;28.00;;;;;;5032667;28;20541;-59
2021/03/17 06:55:07;;;;;;;1.00;0.83;;;23.00;27.90;;;;;;5033756;28;20254;-59
2021/03/17 06:57:33;;;;;;;0.90;0.80;;;23.00;27.90;;;;;;5033584;28;20210;-57
2021/03/17 06:59:59;;;;;;;1.25;0.80;;;23.00;28.00;;;;;;5034104;28;20220;-59
2021/03/17 07:02:24;;;;;;;2.07;1.00;;;23.00;27.90;;;;;;5032362;28;20644;-59
2021/03/17 07:04:50;;;;;;;1.10;0.80;;;23.00;27.90;;;;;;5033379;28;20242;-59
2021/03/17 07:07:18;;;;;;;1.43;1.00;;;23.00;27.80;;;;;;5033619;28;20207;-60
2021/03/17 07:09:44;;;;;;;1.13;0.90;;;23.00;27.80;;;;;;5033219;28;20248;-59
2021/03/17 07:12:10;;;;;;;2.60;1.00;;;23.00;27.80;;;;;;5033657;28;20209;-58
2021/03/17 07:14:36;;;;;;;1.17;0.90;;;23.00;27.80;;;;;;5035399;28;20196;-59
2021/03/17 07:17:02;;;;;;;1.47;1.00;;;23.00;27.90;;;;;;5045019;28;20244;-56
2021/03/17 07:19:28;;;;;;;1.57;0.90;;;23.00;27.90;;;;;;5032879;28;20218;-60
2021/03/17 07:21:54;;;;;;;3.05;1.05;;;23.00;28.00;;;;;;5033119;28;20214;-56
2021/03/17 07:24:20;;;;;;;8.00;1.97;;;22.90;28.70;;;;;;5032512;28;20205;-58
2021/03/17 07:26:46;;;;;;;4.03;1.23;;;22.80;28.90;;;;;;5027647;28;20241;-60
2021/03/17 07:29:13;;;;;;;2.67;0.97;;;22.80;29.00;;;;;;5030919;28;20205;-54
2021/03/17 07:31:39;;;;;;;6.40;1.50;;;22.80;28.90;;;;;;5031048;28;20564;-56
2021/03/17 07:34:04;;;;;;;3.43;1.47;;;22.80;29.00;;;;;;5031677;28;20217;-55
2021/03/17 07:36:31;;;;;;;1.77;1.20;;;22.70;29.10;;;;;;5030400;28;20626;-59
2021/03/17 07:38:56;;;;;;;1.77;1.20;;;22.70;29.10;;;;;;5026551;28;20596;-56
2021/03/17 07:41:22;;;;;;;2.33;1.40;;;22.70;29.00;;;;;;5031813;28;20195;-56
2021/03/17 07:43:48;;;;;;;3.37;1.20;;;22.70;29.00;;;;;;5033047;28;20275;-55
2021/03/17 07:46:14;;;;;;;3.20;1.30;;;22.70;29.00;;;;;;5033307;28;20340;-57
2021/03/17 07:48:40;;;;;;;2.43;1.17;;;22.70;29.00;;;;;;5036171;28;20677;-55
2021/03/17 07:51:06;;;;;;;2.90;1.20;;;22.70;29.00;;;;;;5053259;28;20271;-56
2021/03/17 07:53:32;;;;;;;2.33;1.23;;;22.70;29.10;;;;;;5035119;28;20205;-50
2021/03/17 07:55:58;;;;;;;3.03;1.40;;;22.70;29.10;;;;;;5032727;28;20592;-55
2021/03/17 07:58:24;;;;;;;3.77;1.10;;;22.70;29.10;;;;;;5028996;28;20207;-57
2021/03/17 08:00:50;;;;;;;2.57;1.20;;;22.70;29.20;;;;;;5034087;28;20233;-53
2021/03/17 08:03:16;;;;;;;3.87;1.37;;;22.70;29.30;;;;;;5032544;28;20614;-55
2021/03/17 08:05:42;;;;;;;2.10;1.10;;;22.70;29.30;;;;;;5031741;28;20236;-53
2021/03/17 08:08:08;;;;;;;3.13;1.30;;;22.70;29.30;;;;;;5037546;28;20210;-50
2021/03/17 08:10:34;;;;;;;2.87;1.30;;;22.70;29.30;;;;;;5032087;28;20599;-52
2021/03/17 08:13:00;;;;;;;3.10;1.27;;;22.70;29.20;;;;;;5032200;28;20209;-56
2021/03/17 08:15:26;;;;;;;1.83;1.20;;;22.70;29.20;;;;;;5032035;28;20205;-53
2021/03/17 08:17:52;;;;;;;1.90;1.07;;;22.70;29.20;;;;;;5037841;28;20567;-56
2021/03/17 08:20:18;;;;;;;2.90;1.33;;;22.70;29.10;;;;;;5028127;28;20279;-51
2021/03/17 08:22:44;;;;;;;2.07;1.10;;;22.80;29.10;;;;;;5032447;28;20214;-53
2021/03/17 08:25:10;;;;;;;3.60;1.23;;;22.80;29.00;;;;;;5031850;28;20230;-51
2021/03/17 08:27:36;;;;;;;1.73;1.20;;;22.80;28.90;;;;;;5040424;28;20206;-54
2021/03/17 08:30:02;;;;;;;4.07;1.47;;;22.90;28.90;;;;;;5031978;28;20596;-54
2021/03/17 08:32:28;;;;;;;4.22;1.10;;;23.00;28.60;;;;;;5029134;28;20293;-59
2021/03/17 08:34:54;;;;;;;5.43;1.20;;;23.10;28.60;;;;;;5018181;28;20261;-48
2021/03/17 08:37:20;;;;;;;3.77;1.30;;;23.00;28.40;;;;;;5028120;28;20206;-44
2021/03/17 08:39:46;;;;;;;5.17;1.50;;;23.00;28.70;;;;;;5031238;28;20222;-46
2021/03/17 08:42:12;;;;;;;2.70;1.53;;;22.90;28.70;;;;;;5029343;28;20202;-45
2021/03/17 08:44:38;;;;;;;5.63;1.73;;;22.90;29.00;;;;;;5031738;28;20212;-60
2021/03/17 08:47:04;;;;;;;5.80;1.73;;;22.90;29.40;;;;;;5030936;28;20616;-55
2021/03/17 08:49:30;;;;;;;3.13;1.70;;;22.90;29.90;;;;;;5030218;28;20228;-58
2021/03/17 08:51:56;;;;;;;21.23;2.90;;;22.90;29.90;;;;;;5031184;28;20209;-49
2021/03/17 08:54:22;;;;;;;3.60;2.00;;;23.00;29.90;;;;;;5029986;28;20202;-59
2021/03/17 08:56:48;;;;;;;5.50;1.90;;;23.00;29.60;;;;;;5030794;28;20652;-49
2021/03/17 08:59:14;;;;;;;6.53;2.35;;;22.90;30.80;;;;;;5030959;28;20233;-52
2021/03/17 09:01:39;;;;;;;7.63;2.33;;;22.80;31.80;;;;;;5029893;28;20244;-53
2021/03/17 09:04:05;;;;;;;5.90;2.13;;;22.80;32.10;;;;;;5030589;28;20260;-58
2021/03/17 09:06:31;;;;;;;5.57;2.20;;;22.80;32.30;;;;;;5029231;28;20230;-53
2021/03/17 09:08:57;;;;;;;8.50;1.87;;;22.80;32.50;;;;;;5032027;28;20705;-48
2021/03/17 09:11:23;;;;;;;7.30;6.10;;;22.80;32.40;;;;;;5030592;28;20206;-53
2021/03/17 09:13:49;;;;;;;6.53;5.87;;;18.50;24.90;;;;;;5028581;28;20198;-49
2021/03/17 09:16:15;;;;;;;5.83;4.70;;;13.90;28.20;;;;;;5029107;28;20289;-49
2021/03/17 09:18:41;;;;;;;4.97;3.37;;;17.10;28.90;;;;;;5030360;28;20769;-47
2021/03/17 09:21:07;;;;;;;4.37;2.50;;;19.20;27.80;;;;;;5040405;28;20333;-51
2021/03/17 09:23:33;;;;;;;4.17;2.23;;;20.50;27.10;;;;;;5032063;28;20250;-54
2021/03/17 09:26:01;;;;;;;2.50;1.67;;;21.20;26.80;;;;;;5026255;28;20583;-49
2021/03/17 09:28:27;;;;;;;4.00;1.93;;;21.60;27.10;;;;;;5030405;28;20202;-50
2021/03/17 09:30:53;;;;;;;2.87;1.90;;;21.90;27.00;;;;;;5029919;28;20209;-49
2021/03/17 09:33:19;;;;;;;2.93;1.60;;;22.10;27.10;;;;;;5029920;28;20202;-53
2021/03/17 09:35:45;;;;;;;3.93;1.73;;;22.30;27.30;;;;;;5028857;28;20292;-54
2021/03/17 09:38:11;;;;;;;4.03;1.80;;;22.40;27.60;;;;;;5029887;28;20217;-51
2021/03/17 09:40:37;;;;;;;5.23;1.37;;;22.50;27.70;;;;;;5024010;28;20218;-49
2021/03/17 09:43:03;;;;;;;1.83;1.40;;;22.60;27.70;;;;;;5028670;28;20212;-57
2021/03/17 09:45:29;;;;;;;3.77;1.60;;;22.70;27.80;;;;;;5029703;28;20280;-51
2021/03/17 09:47:55;;;;;;;2.63;1.33;;;22.70;27.80;;;;;;5029963;28;20211;-55
2021/03/17 09:50:21;;;;;;;1.67;1.10;;;22.80;28.40;;;;;;5028779;28;20224;-52
2021/03/17 09:52:47;;;;;;;4.30;1.80;;;22.80;27.90;;;;;;5030229;28;20736;-58
2021/03/17 09:55:13;;;;;;;1.60;1.30;;;22.80;27.90;;;;;;5027515;28;20221;-54
2021/03/17 09:57:39;;;;;;;3.77;1.70;;;22.90;28.00;;;;;;5029290;28;20253;-51
2021/03/17 10:00:05;;;;;;;3.07;1.33;;;22.90;28.00;;;;;;5030449;28;20231;-52
2021/03/17 10:02:31;;;;;;;1.53;1.30;;;22.90;28.00;;;;;;5029580;28;20204;-53
2021/03/17 10:04:57;;;;;;;2.83;1.27;;;22.90;28.00;;;;;;5029553;28;20209;-54
2021/03/17 10:07:23;;;;;;;2.53;1.50;;;22.90;29.00;;;;;;5029906;28;20285;-48
2021/03/17 10:09:49;;;;;;;2.67;1.60;;;23.00;28.70;;;;;;5028292;28;20686;-55
2021/03/17 10:12:15;;;;;;;2.47;1.37;;;23.00;28.60;;;;;;5030780;28;20253;-53
2021/03/17 10:14:41;;;;;;;4.00;1.50;;;23.00;29.00;;;;;;5033600;28;20730;-52
2021/03/17 10:17:07;;;;;;;4.20;1.40;;;23.00;29.80;;;;;;5033067;28;20260;-57
2021/03/17 10:19:33;;;;;;;2.60;1.37;;;23.10;29.50;;;;;;5031900;28;20565;-50
2021/03/17 10:21:59;;;;;;;2.10;1.47;;;23.10;29.30;;;;;;5033822;28;20206;-59
2021/03/17 10:24:25;;;;;;;3.33;1.47;;;23.10;28.70;;;;;;5033665;28;20207;-59
2021/03/17 10:26:51;;;;;;;1.20;1.10;;;23.10;29.60;;;;;;5032956;28;20233;-58
2021/03/17 10:29:17;;;;;;;1.90;1.13;;;23.10;29.50;;;;;;5033580;28;20228;-58
2021/03/17 10:31:44;;;;;;;2.90;1.20;;;23.10;29.70;;;;;;5032690;28;20561;-59
2021/03/17 10:34:10;;;;;;;1.80;1.27;;;23.10;29.70;;;;;;5026424;28;20210;-57
2021/03/17 10:36:36;;;;;;;2.90;1.50;;;23.10;29.10;;;;;;5027908;28;20264;-59
2021/03/17 10:39:02;;;;;;;2.40;1.20;;;23.10;29.60;;;;;;5031535;28;20712;-56
2021/03/17 10:41:28;;;;;;;3.57;1.37;;;23.10;29.50;;;;;;5029214;28;20218;-56
2021/03/17 10:43:54;;;;;;;8.40;1.70;;;23.20;29.80;;;;;;5026404;28;20255;-52
2021/03/17 10:46:20;;;;;;;3.83;1.20;;;23.20;29.80;;;;;;5033764;28;20592;-57
2021/03/17 10:48:46;;;;;;;2.73;1.20;;;23.20;29.40;;;;;;5034567;28;20230;-50
2021/03/17 10:51:12;;;;;;;2.17;1.00;;;23.10;29.00;;;;;;5036439;28;20209;-52
2021/03/17 10:53:38;;;;;;;3.33;1.33;;;23.10;28.70;;;;;;5039784;28;20264;-52
2021/03/17 10:56:04;;;;;;;2.23;1.10;;;23.10;28.90;;;;;;5034526;28;20214;-49
2021/03/17 10:58:30;;;;;;;2.70;1.27;;;23.10;28.50;;;;;;5034372;28;20233;-53
2021/03/17 11:00:56;;;;;;;1.30;0.97;;;23.10;28.50;;;;;;5034632;28;20213;-55
2021/03/17 11:03:22;;;;;;;2.90;1.40;;;23.10;28.70;;;;;;5034258;28;20259;-50
2021/03/17 11:05:48;;;;;;;1.33;1.03;;;23.00;28.70;;;;;;5034153;28;20237;-50
2021/03/17 11:08:14;;;;;;;1.67;1.20;;;23.00;28.90;;;;;;5032964;28;20643;-52
2021/03/17 11:10:41;;;;;;;1.57;1.10;;;23.00;28.90;;;;;;5034133;28;20205;-58
2021/03/17 11:13:07;;;;;;;2.30;1.40;;;23.00;28.90;;;;;;5033867;28;20610;-52
2021/03/17 11:15:33;;;;;;;1.30;1.10;;;23.00;28.70;;;;;;5032673;28;20214;-50
2021/03/17 11:17:59;;;;;;;2.40;1.00;;;23.00;28.70;;;;;;5022154;28;20604;-53
2021/03/17 11:20:25;;;;;;;4.83;1.87;;;23.00;28.60;;;;;;5026806;28;20249;-53
2021/03/17 11:22:51;;;;;;;3.90;1.50;;;23.00;28.70;;;;;;5039301;28;20655;-51
2021/03/17 11:25:17;;;;;;;3.37;1.57;;;22.90;29.60;;;;;;5028174;28;20236;-56
2021/03/17 11:27:43;;;;;;;2.60;1.30;;;23.00;30.00;;;;;;5031250;28;20209;-60
2021/03/17 11:30:09;;;;;;;5.07;1.40;;;23.10;29.70;;;;;;5029618;28;20244;-63
2021/03/17 11:32:35;;;;;;;2.97;1.23;;;23.00;29.00;;;;;;5031472;28;20558;-62
2021/03/17 11:35:01;;;;;;;2.10;1.30;;;23.00;28.90;;;;;;5031550;28;20213;-63
2021/03/17 11:37:27;;;;;;;2.17;1.17;;;23.00;28.90;;;;;;5032071;28;20210;-62
2021/03/17 11:39:53;;;;;;;3.60;1.57;;;23.10;28.80;;;;;;5032634;28;20276;-61
2021/03/17 11:42:18;;;;;;;3.07;1.20;;;23.10;28.70;;;;;;5031171;28;20564;-59
2021/03/17 11:44:44;;;;;;;1.63;1.10;;;23.10;28.60;;;;;;5030726;28;20212;-60
2021/03/17 11:47:10;;;;;;;2.03;1.30;;;23.10;28.80;;;;;;5032178;28;20198;-53
2021/03/17 11:49:37;;;;;;;1.63;1.10;;;23.20;29.10;;;;;;5029500;28;20586;-58
2021/03/17 11:52:03;;;;;;;1.43;1.20;;;23.20;28.80;;;;;;5024683;28;20304;-49
2021/03/17 11:54:29;;;;;;;3.40;1.48;;;23.20;28.80;;;;;;5032482;28;20202;-54
2021/03/17 11:56:55;;;;;;;2.70;1.70;;;23.20;29.60;;;;;;5031851;28;20293;-49
2021/03/17 11:59:21;;;;;;;1.80;1.20;;;23.10;29.00;;;;;;5022584;28;20413;-54
2021/03/17 12:01:47;;;;;;;1.80;1.37;;;23.20;29.00;;;;;;5031149;28;20207;-48
2021/03/17 12:04:13;;;;;;;4.70;1.77;;;23.20;28.90;;;;;;5031299;28;20199;-51
2021/03/17 12:06:39;;;;;;;2.17;1.37;;;23.30;29.20;;;;;;5031682;28;20230;-51
2021/03/17 12:09:05;;;;;;;1.57;1.43;;;23.30;29.30;;;;;;5030389;28;20593;-48
2021/03/17 12:11:33;;;;;;;2.83;1.30;;;23.30;29.30;;;;;;5019880;28;20206;-49
2021/03/17 12:13:59;;;;;;;5.33;1.57;;;23.30;29.50;;;;;;5026064;28;20209;-45
2021/03/17 12:16:25;;;;;;;1.57;1.37;;;23.30;29.50;;;;;;5029938;28;20569;-49
2021/03/17 12:18:51;;;;;;;3.30;1.20;;;23.30;29.20;;;;;;5029311;28;20228;-51
2021/03/17 12:21:17;;;;;;;1.33;1.07;;;23.30;29.20;;;;;;5027529;28;20189;-48
2021/03/17 12:23:43;;;;;;;2.10;1.27;;;23.30;28.80;;;;;;5020351;28;20543;-51
2021/03/17 12:26:09;;;;;;;1.43;1.00;;;23.30;29.10;;;;;;5028521;28;20241;-51
2021/03/17 12:28:35;;;;;;;1.83;1.17;;;23.30;28.60;;;;;;5031712;28;20218;-58
2021/03/17 12:31:01;;;;;;;1.93;1.07;;;23.30;28.50;;;;;;5031606;28;20202;-50
2021/03/17 12:33:26;;;;;;;2.93;1.33;;;23.30;28.40;;;;;;5032078;28;20248;-49
2021/03/17 12:35:52;;;;;;;3.30;1.65;;;23.30;28.50;;;;;;5029949;28;20210;-52
2021/03/17 12:38:18;;;;;;;3.40;1.40;;;23.30;28.70;;;;;;5032214;28;20222;-54
2021/03/17 12:40:44;;;;;;;1.60;0.90;;;23.30;28.40;;;;;;5021158;28;20216;-57